sensor_id;sensor_type;location;lat;lon;timestamp;temperature;humidity
10905;DHT22;5505;51.450;9.254;2022-12-19T00:02:20;-1.10;99.90
10905;DHT22;5505;51.450;9.254;2022-12-19T00:05:07;-1.10;99.90
10905;DHT22;5505;51.450;9.254;2022-12-19T00:07:55;-1.10;99.90
10905;DHT22;5505;51.450;9.254;2022-12-19T00:10:42;-1.10;99.90
10905;DHT22;5505;51.450;9.254;2022-12-19T00:13:30;-1.10;99.90
10905;DHT22;5505;51.450;9.254;2022-12-19T00:16:19;-1.10;99.90
10905;DHT22;5505;51.450;9.254;2022-12-19T00:19:06;-1.00;99.90
10905;DHT22;5505;51.450;9.254;2022-12-19T00:21:53;-1.00;99.90
10905;DHT22;5505;51.450;9.254;2022-12-19T00:24:41;-1.00;99.90
10905;DHT22;5505;51.450;9.254;2022-12-19T00:27:28;-1.00;99.90
10905;DHT22;5505;51.450;9.254;2022-12-19T00:30:19;-1.00;99.90
10905;DHT22;5505;51.450;9.254;2022-12-19T00:33:05;-1.00;99.90
10905;DHT22;5505;51.450;9.254;2022-12-19T00:35:56;-1.00;99.90
10905;DHT22;5505;51.450;9.254;2022-12-19T00:38:43;-1.00;99.90
10905;DHT22;5505;51.450;9.254;2022-12-19T00:41:33;-1.00;99.90
10905;DHT22;5505;51.450;9.254;2022-12-19T00:44:20;-1.00;99.90
10905;DHT22;5505;51.450;9.254;2022-12-19T00:47:07;-0.90;99.90
10905;DHT22;5505;51.450;9.254;2022-12-19T00:49:53;-0.90;99.90
10905;DHT22;5505;51.450;9.254;2022-12-19T00:52:40;-0.80;99.90
10905;DHT22;5505;51.450;9.254;2022-12-19T00:55:27;-0.80;99.90
10905;DHT22;5505;51.450;9.254;2022-12-19T00:58:15;-0.90;99.90
10905;DHT22;5505;51.450;9.254;2022-12-19T01:01:04;-0.90;99.90
10905;DHT22;5505;51.450;9.254;2022-12-19T01:03:52;-0.90;99.90
10905;DHT22;5505;51.450;9.254;2022-12-19T01:06:39;-0.90;99.90
10905;DHT22;5505;51.450;9.254;2022-12-19T01:09:26;-0.80;99.90
10905;DHT22;5505;51.450;9.254;2022-12-19T01:12:13;-0.80;99.90
10905;DHT22;5505;51.450;9.254;2022-12-19T01:15:19;-0.80;99.90
10905;DHT22;5505;51.450;9.254;2022-12-19T01:18:06;-0.80;99.90
10905;DHT22;5505;51.450;9.254;2022-12-19T01:20:57;-0.80;99.90
10905;DHT22;5505;51.450;9.254;2022-12-19T01:23:44;-0.80;99.90
10905;DHT22;5505;51.450;9.254;2022-12-19T01:26:31;-0.70;99.90
10905;DHT22;5505;51.450;9.254;2022-12-19T01:29:18;-0.70;99.90
10905;DHT22;5505;51.450;9.254;2022-12-19T01:32:06;-0.70;99.90
10905;DHT22;5505;51.450;9.254;2022-12-19T01:34:52;-0.60;99.90
10905;DHT22;5505;51.450;9.254;2022-12-19T01:37:39;-0.60;99.90
10905;DHT22;5505;51.450;9.254;2022-12-19T01:40:26;-0.70;99.90
10905;DHT22;5505;51.450;9.254;2022-12-19T01:43:13;-0.80;99.90
10905;DHT22;5505;51.450;9.254;2022-12-19T01:46:02;-0.70;99.90
10905;DHT22;5505;51.450;9.254;2022-12-19T01:48:51;-0.80;99.90
10905;DHT22;5505;51.450;9.254;2022-12-19T01:51:40;-0.70;99.90
10905;DHT22;5505;51.450;9.254;2022-12-19T01:54:30;-0.70;99.90
10905;DHT22;5505;51.450;9.254;2022-12-19T01:57:19;-0.70;99.90
10905;DHT22;5505;51.450;9.254;2022-12-19T02:00:07;-0.70;99.90
10905;DHT22;5505;51.450;9.254;2022-12-19T02:02:59;0.10;99.90
10905;DHT22;5505;51.450;9.254;2022-12-19T02:05:48;-0.80;99.90
10905;DHT22;5505;51.450;9.254;2022-12-19T02:08:35;-0.80;99.90
10905;DHT22;5505;51.450;9.254;2022-12-19T02:11:22;-0.80;99.90
10905;DHT22;5505;51.450;9.254;2022-12-19T02:14:09;-0.80;99.90
10905;DHT22;5505;51.450;9.254;2022-12-19T02:17:01;-0.60;99.90
10905;DHT22;5505;51.450;9.254;2022-12-19T02:20:18;-0.60;99.90
10905;DHT22;5505;51.450;9.254;2022-12-19T02:26:50;-0.70;99.90
10905;DHT22;5505;51.450;9.254;2022-12-19T02:30:03;-0.70;99.90
10905;DHT22;5505;51.450;9.254;2022-12-19T02:33:00;-0.70;99.90
10905;DHT22;5505;51.450;9.254;2022-12-19T02:35:51;-0.70;99.90
10905;DHT22;5505;51.450;9.254;2022-12-19T02:38:43;-0.70;99.90
10905;DHT22;5505;51.450;9.254;2022-12-19T02:41:37;-0.60;99.90
10905;DHT22;5505;51.450;9.254;2022-12-19T02:44:32;-0.60;99.90
10905;DHT22;5505;51.450;9.254;2022-12-19T02:47:20;-0.70;99.90
10905;DHT22;5505;51.450;9.254;2022-12-19T02:50:09;-0.60;99.90
10905;DHT22;5505;51.450;9.254;2022-12-19T02:52:57;-0.70;99.90
10905;DHT22;5505;51.450;9.254;2022-12-19T02:55:48;-0.70;99.90
10905;DHT22;5505;51.450;9.254;2022-12-19T02:58:47;-0.60;99.90
10905;DHT22;5505;51.450;9.254;2022-12-19T03:01:42;-0.60;99.90
10905;DHT22;5505;51.450;9.254;2022-12-19T03:04:38;-0.70;99.90
10905;DHT22;5505;51.450;9.254;2022-12-19T03:07:35;-0.70;99.90
10905;DHT22;5505;51.450;9.254;2022-12-19T03:10:27;-0.60;99.90
10905;DHT22;5505;51.450;9.254;2022-12-19T03:13:23;-0.70;99.90
10905;DHT22;5505;51.450;9.254;2022-12-19T03:16:10;-0.70;99.90
10905;DHT22;5505;51.450;9.254;2022-12-19T03:18:58;-0.70;99.90
10905;DHT22;5505;51.450;9.254;2022-12-19T03:21:46;-0.80;99.90
10905;DHT22;5505;51.450;9.254;2022-12-19T03:24:35;-0.80;99.90
10905;DHT22;5505;51.450;9.254;2022-12-19T03:27:24;-0.80;99.90
10905;DHT22;5505;51.450;9.254;2022-12-19T03:30:14;-0.80;99.90
10905;DHT22;5505;51.450;9.254;2022-12-19T03:33:01;-0.80;99.90
10905;DHT22;5505;51.450;9.254;2022-12-19T03:35:49;-0.80;99.90
10905;DHT22;5505;51.450;9.254;2022-12-19T03:38:39;-0.80;99.90
10905;DHT22;5505;51.450;9.254;2022-12-19T03:41:30;-0.90;99.90
10905;DHT22;5505;51.450;9.254;2022-12-19T03:44:38;-0.80;99.90
10905;DHT22;5505;51.450;9.254;2022-12-19T03:47:31;-0.90;99.90
10905;DHT22;5505;51.450;9.254;2022-12-19T03:50:20;-0.90;99.90
10905;DHT22;5505;51.450;9.254;2022-12-19T03:53:18;-0.90;99.90
10905;DHT22;5505;51.450;9.254;2022-12-19T03:56:12;-0.80;99.90
10905;DHT22;5505;51.450;9.254;2022-12-19T03:59:06;-0.80;99.90
10905;DHT22;5505;51.450;9.254;2022-12-19T04:01:55;-0.80;99.90
10905;DHT22;5505;51.450;9.254;2022-12-19T04:04:44;-0.90;99.90
10905;DHT22;5505;51.450;9.254;2022-12-19T04:07:32;-0.80;99.90
10905;DHT22;5505;51.450;9.254;2022-12-19T04:10:21;-0.80;99.90
10905;DHT22;5505;51.450;9.254;2022-12-19T04:13:13;-0.80;99.90
10905;DHT22;5505;51.450;9.254;2022-12-19T04:16:09;-1.30;99.90
10905;DHT22;5505;51.450;9.254;2022-12-19T04:19:02;1.30;99.90
10905;DHT22;5505;51.450;9.254;2022-12-19T04:21:54;-0.80;99.90
10905;DHT22;5505;51.450;9.254;2022-12-19T04:24:43;-0.80;99.90
10905;DHT22;5505;51.450;9.254;2022-12-19T04:27:33;-0.90;99.90
10905;DHT22;5505;51.450;9.254;2022-12-19T04:30:21;-0.90;99.90
10905;DHT22;5505;51.450;9.254;2022-12-19T04:33:09;-0.90;99.90
10905;DHT22;5505;51.450;9.254;2022-12-19T04:35:56;-0.90;99.90
10905;DHT22;5505;51.450;9.254;2022-12-19T04:38:43;-0.90;99.90
10905;DHT22;5505;51.450;9.254;2022-12-19T04:41:30;-1.00;99.90
10905;DHT22;5505;51.450;9.254;2022-12-19T04:44:17;-0.90;99.90
10905;DHT22;5505;51.450;9.254;2022-12-19T04:47:03;-0.90;99.90
10905;DHT22;5505;51.450;9.254;2022-12-19T04:49:51;-0.80;99.90
10905;DHT22;5505;51.450;9.254;2022-12-19T04:52:38;-0.80;99.90
10905;DHT22;5505;51.450;9.254;2022-12-19T04:55:25;-0.70;99.90
10905;DHT22;5505;51.450;9.254;2022-12-19T04:58:12;-0.80;99.90
10905;DHT22;5505;51.450;9.254;2022-12-19T05:01:00;-0.70;99.90
10905;DHT22;5505;51.450;9.254;2022-12-19T05:03:47;-0.60;99.90
10905;DHT22;5505;51.450;9.254;2022-12-19T05:06:35;-0.60;99.90
10905;DHT22;5505;51.450;9.254;2022-12-19T05:09:22;-0.70;99.90
10905;DHT22;5505;51.450;9.254;2022-12-19T05:12:09;-0.70;99.90
10905;DHT22;5505;51.450;9.254;2022-12-19T05:14:56;-0.60;99.90
10905;DHT22;5505;51.450;9.254;2022-12-19T05:17:42;-0.50;99.90
10905;DHT22;5505;51.450;9.254;2022-12-19T05:20:29;-0.50;99.90
10905;DHT22;5505;51.450;9.254;2022-12-19T05:23:17;-0.50;99.90
10905;DHT22;5505;51.450;9.254;2022-12-19T05:26:05;-0.30;99.90
10905;DHT22;5505;51.450;9.254;2022-12-19T05:28:51;-0.30;99.90
10905;DHT22;5505;51.450;9.254;2022-12-19T05:31:38;-0.30;99.90
10905;DHT22;5505;51.450;9.254;2022-12-19T05:34:25;-0.20;99.90
10905;DHT22;5505;51.450;9.254;2022-12-19T05:37:12;-0.10;99.90
10905;DHT22;5505;51.450;9.254;2022-12-19T05:40:00;-0.10;99.90
10905;DHT22;5505;51.450;9.254;2022-12-19T05:42:47;-0.10;99.90
10905;DHT22;5505;51.450;9.254;2022-12-19T05:45:33;0.00;99.90
10905;DHT22;5505;51.450;9.254;2022-12-19T05:48:20;-0.10;99.90
10905;DHT22;5505;51.450;9.254;2022-12-19T05:51:07;-0.10;99.90
10905;DHT22;5505;51.450;9.254;2022-12-19T05:53:54;-0.10;99.90
10905;DHT22;5505;51.450;9.254;2022-12-19T05:56:42;0.00;99.90
10905;DHT22;5505;51.450;9.254;2022-12-19T05:59:29;0.10;99.90
10905;DHT22;5505;51.450;9.254;2022-12-19T06:02:16;0.00;99.90
10905;DHT22;5505;51.450;9.254;2022-12-19T06:05:03;0.00;99.90
10905;DHT22;5505;51.450;9.254;2022-12-19T06:07:50;0.00;99.90
10905;DHT22;5505;51.450;9.254;2022-12-19T06:10:37;0.10;99.90
10905;DHT22;5505;51.450;9.254;2022-12-19T06:13:25;0.10;99.90
10905;DHT22;5505;51.450;9.254;2022-12-19T06:16:13;0.00;99.90
10905;DHT22;5505;51.450;9.254;2022-12-19T06:19:00;0.00;99.90
10905;DHT22;5505;51.450;9.254;2022-12-19T06:21:47;0.10;99.90
10905;DHT22;5505;51.450;9.254;2022-12-19T06:24:33;0.10;99.90
10905;DHT22;5505;51.450;9.254;2022-12-19T06:27:20;0.10;99.90
10905;DHT22;5505;51.450;9.254;2022-12-19T06:30:09;0.10;99.90
10905;DHT22;5505;51.450;9.254;2022-12-19T06:32:56;0.10;99.90
10905;DHT22;5505;51.450;9.254;2022-12-19T06:35:43;0.00;99.90
10905;DHT22;5505;51.450;9.254;2022-12-19T06:38:30;0.00;99.90
10905;DHT22;5505;51.450;9.254;2022-12-19T06:41:18;-0.10;99.90
10905;DHT22;5505;51.450;9.254;2022-12-19T06:44:22;0.00;99.90
10905;DHT22;5505;51.450;9.254;2022-12-19T06:47:10;0.10;99.90
10905;DHT22;5505;51.450;9.254;2022-12-19T06:49:57;0.10;99.90
10905;DHT22;5505;51.450;9.254;2022-12-19T06:52:44;0.10;99.90
10905;DHT22;5505;51.450;9.254;2022-12-19T06:55:31;0.10;99.90
10905;DHT22;5505;51.450;9.254;2022-12-19T06:58:17;0.10;99.90
10905;DHT22;5505;51.450;9.254;2022-12-19T07:01:04;0.10;99.90
10905;DHT22;5505;51.450;9.254;2022-12-19T07:03:53;0.20;99.90
10905;DHT22;5505;51.450;9.254;2022-12-19T07:06:40;1.80;99.90
10905;DHT22;5505;51.450;9.254;2022-12-19T07:09:28;0.20;99.90
10905;DHT22;5505;51.450;9.254;2022-12-19T07:12:16;0.30;99.90
10905;DHT22;5505;51.450;9.254;2022-12-19T07:15:03;0.30;99.90
10905;DHT22;5505;51.450;9.254;2022-12-19T07:17:50;0.30;99.90
10905;DHT22;5505;51.450;9.254;2022-12-19T07:20:39;0.30;99.90
10905;DHT22;5505;51.450;9.254;2022-12-19T07:23:28;0.30;99.90
10905;DHT22;5505;51.450;9.254;2022-12-19T07:26:15;0.30;99.90
10905;DHT22;5505;51.450;9.254;2022-12-19T07:29:02;0.30;99.90
10905;DHT22;5505;51.450;9.254;2022-12-19T07:31:49;0.30;99.90
10905;DHT22;5505;51.450;9.254;2022-12-19T07:34:35;0.30;99.90
10905;DHT22;5505;51.450;9.254;2022-12-19T07:37:23;0.30;99.90
10905;DHT22;5505;51.450;9.254;2022-12-19T07:40:12;0.30;99.90
10905;DHT22;5505;51.450;9.254;2022-12-19T07:42:59;0.40;99.90
10905;DHT22;5505;51.450;9.254;2022-12-19T07:45:46;0.40;99.90
10905;DHT22;5505;51.450;9.254;2022-12-19T07:48:39;0.40;99.90
10905;DHT22;5505;51.450;9.254;2022-12-19T07:51:26;0.40;99.90
10905;DHT22;5505;51.450;9.254;2022-12-19T07:54:14;0.50;99.90
10905;DHT22;5505;51.450;9.254;2022-12-19T07:57:01;0.50;99.90
10905;DHT22;5505;51.450;9.254;2022-12-19T07:59:48;0.50;99.90
10905;DHT22;5505;51.450;9.254;2022-12-19T08:02:35;0.50;99.90
10905;DHT22;5505;51.450;9.254;2022-12-19T08:05:22;0.50;99.90
10905;DHT22;5505;51.450;9.254;2022-12-19T08:08:08;0.60;99.90
10905;DHT22;5505;51.450;9.254;2022-12-19T08:11:05;0.60;99.90
10905;DHT22;5505;51.450;9.254;2022-12-19T08:13:51;0.60;99.90
10905;DHT22;5505;51.450;9.254;2022-12-19T08:16:38;0.70;99.90
10905;DHT22;5505;51.450;9.254;2022-12-19T08:19:25;0.70;99.90
10905;DHT22;5505;51.450;9.254;2022-12-19T08:22:12;0.70;99.90
10905;DHT22;5505;51.450;9.254;2022-12-19T08:24:58;0.70;99.90
10905;DHT22;5505;51.450;9.254;2022-12-19T08:27:47;0.80;99.90
10905;DHT22;5505;51.450;9.254;2022-12-19T08:30:33;0.80;99.90
10905;DHT22;5505;51.450;9.254;2022-12-19T08:33:20;0.80;99.90
10905;DHT22;5505;51.450;9.254;2022-12-19T08:36:10;0.80;99.90
10905;DHT22;5505;51.450;9.254;2022-12-19T08:38:57;0.80;99.90
10905;DHT22;5505;51.450;9.254;2022-12-19T08:41:43;0.80;99.90
10905;DHT22;5505;51.450;9.254;2022-12-19T08:44:31;0.80;99.90
10905;DHT22;5505;51.450;9.254;2022-12-19T08:47:18;0.80;99.90
10905;DHT22;5505;51.450;9.254;2022-12-19T08:50:06;0.80;99.90
10905;DHT22;5505;51.450;9.254;2022-12-19T08:52:53;0.80;99.90
10905;DHT22;5505;51.450;9.254;2022-12-19T08:55:40;0.80;99.90
10905;DHT22;5505;51.450;9.254;2022-12-19T08:58:28;0.90;99.90
10905;DHT22;5505;51.450;9.254;2022-12-19T09:01:18;0.90;99.90
10905;DHT22;5505;51.450;9.254;2022-12-19T09:04:05;0.90;99.90
10905;DHT22;5505;51.450;9.254;2022-12-19T09:06:51;0.90;99.90
10905;DHT22;5505;51.450;9.254;2022-12-19T09:09:38;1.00;99.90
10905;DHT22;5505;51.450;9.254;2022-12-19T09:12:25;0.90;99.90
10905;DHT22;5505;51.450;9.254;2022-12-19T09:15:13;1.90;99.90
10905;DHT22;5505;51.450;9.254;2022-12-19T09:18:01;1.00;99.90
10905;DHT22;5505;51.450;9.254;2022-12-19T09:20:52;2.70;99.90
10905;DHT22;5505;51.450;9.254;2022-12-19T09:23:39;1.00;99.90
10905;DHT22;5505;51.450;9.254;2022-12-19T09:26:26;1.00;99.90
10905;DHT22;5505;51.450;9.254;2022-12-19T09:29:13;1.00;99.90
10905;DHT22;5505;51.450;9.254;2022-12-19T09:32:00;1.10;99.90
10905;DHT22;5505;51.450;9.254;2022-12-19T09:34:48;1.10;99.90
10905;DHT22;5505;51.450;9.254;2022-12-19T09:37:35;1.10;99.90
10905;DHT22;5505;51.450;9.254;2022-12-19T09:40:21;1.10;99.90
10905;DHT22;5505;51.450;9.254;2022-12-19T09:43:22;1.10;99.90
10905;DHT22;5505;51.450;9.254;2022-12-19T09:46:16;1.10;99.90
10905;DHT22;5505;51.450;9.254;2022-12-19T09:49:09;1.10;99.90
10905;DHT22;5505;51.450;9.254;2022-12-19T09:52:02;1.20;99.90
10905;DHT22;5505;51.450;9.254;2022-12-19T09:54:52;1.20;99.90
10905;DHT22;5505;51.450;9.254;2022-12-19T09:57:45;1.20;99.90
10905;DHT22;5505;51.450;9.254;2022-12-19T10:00:36;1.20;99.90
10905;DHT22;5505;51.450;9.254;2022-12-19T10:03:28;1.10;99.90
10905;DHT22;5505;51.450;9.254;2022-12-19T10:06:17;1.20;99.90
10905;DHT22;5505;51.450;9.254;2022-12-19T10:09:11;1.10;99.90
10905;DHT22;5505;51.450;9.254;2022-12-19T10:12:14;1.20;99.90
10905;DHT22;5505;51.450;9.254;2022-12-19T10:15:08;1.20;99.90
10905;DHT22;5505;51.450;9.254;2022-12-19T10:18:21;1.20;99.90
10905;DHT22;5505;51.450;9.254;2022-12-19T10:21:14;1.20;99.90
10905;DHT22;5505;51.450;9.254;2022-12-19T10:24:27;1.20;99.90
10905;DHT22;5505;51.450;9.254;2022-12-19T10:27:22;1.30;99.90
10905;DHT22;5505;51.450;9.254;2022-12-19T10:30:14;1.20;99.90
10905;DHT22;5505;51.450;9.254;2022-12-19T10:33:11;1.30;99.90
10905;DHT22;5505;51.450;9.254;2022-12-19T10:36:00;1.30;99.90
10905;DHT22;5505;51.450;9.254;2022-12-19T10:38:52;1.30;99.90
10905;DHT22;5505;51.450;9.254;2022-12-19T10:41:44;3.10;99.90
10905;DHT22;5505;51.450;9.254;2022-12-19T10:44:34;2.10;99.90
10905;DHT22;5505;51.450;9.254;2022-12-19T10:47:22;1.30;99.90
10905;DHT22;5505;51.450;9.254;2022-12-19T10:50:11;1.30;99.90
10905;DHT22;5505;51.450;9.254;2022-12-19T10:53:06;1.30;99.90
10905;DHT22;5505;51.450;9.254;2022-12-19T10:55:54;1.30;99.90
10905;DHT22;5505;51.450;9.254;2022-12-19T10:58:51;1.40;99.90
10905;DHT22;5505;51.450;9.254;2022-12-19T11:01:41;1.40;99.90
10905;DHT22;5505;51.450;9.254;2022-12-19T11:04:30;1.40;99.90
10905;DHT22;5505;51.450;9.254;2022-12-19T11:07:19;1.40;99.90
10905;DHT22;5505;51.450;9.254;2022-12-19T11:10:33;1.50;99.90
10905;DHT22;5505;51.450;9.254;2022-12-19T11:13:23;1.50;99.90
10905;DHT22;5505;51.450;9.254;2022-12-19T11:16:13;1.50;99.90
10905;DHT22;5505;51.450;9.254;2022-12-19T11:19:18;1.50;99.90
10905;DHT22;5505;51.450;9.254;2022-12-19T11:22:13;1.60;99.90
10905;DHT22;5505;51.450;9.254;2022-12-19T11:25:03;1.60;99.90
10905;DHT22;5505;51.450;9.254;2022-12-19T11:27:50;1.60;99.90
10905;DHT22;5505;51.450;9.254;2022-12-19T11:30:37;1.50;99.90
10905;DHT22;5505;51.450;9.254;2022-12-19T11:33:28;1.60;99.90
10905;DHT22;5505;51.450;9.254;2022-12-19T11:36:28;1.60;99.90
10905;DHT22;5505;51.450;9.254;2022-12-19T11:39:20;1.60;99.90
10905;DHT22;5505;51.450;9.254;2022-12-19T11:42:13;1.60;99.90
10905;DHT22;5505;51.450;9.254;2022-12-19T11:45:09;1.60;99.90
10905;DHT22;5505;51.450;9.254;2022-12-19T11:48:00;1.70;99.90
10905;DHT22;5505;51.450;9.254;2022-12-19T11:50:58;1.70;99.90
10905;DHT22;5505;51.450;9.254;2022-12-19T11:53:58;1.60;99.90
10905;DHT22;5505;51.450;9.254;2022-12-19T11:56:47;1.60;99.90
10905;DHT22;5505;51.450;9.254;2022-12-19T11:59:35;1.70;99.90
10905;DHT22;5505;51.450;9.254;2022-12-19T12:02:51;1.70;99.90
10905;DHT22;5505;51.450;9.254;2022-12-19T12:05:43;1.70;99.90
10905;DHT22;5505;51.450;9.254;2022-12-19T12:08:48;1.70;99.90
10905;DHT22;5505;51.450;9.254;2022-12-19T12:11:42;1.60;99.90
10905;DHT22;5505;51.450;9.254;2022-12-19T12:14:37;1.60;99.90
10905;DHT22;5505;51.450;9.254;2022-12-19T12:17:50;1.60;99.90
10905;DHT22;5505;51.450;9.254;2022-12-19T12:20:47;1.70;99.90
10905;DHT22;5505;51.450;9.254;2022-12-19T12:23:46;1.70;99.90
10905;DHT22;5505;51.450;9.254;2022-12-19T12:26:43;1.70;99.90
10905;DHT22;5505;51.450;9.254;2022-12-19T12:29:43;1.80;99.90
10905;DHT22;5505;51.450;9.254;2022-12-19T12:32:48;1.80;99.90
10905;DHT22;5505;51.450;9.254;2022-12-19T12:35:38;1.80;99.90
10905;DHT22;5505;51.450;9.254;2022-12-19T12:38:38;1.80;99.90
10905;DHT22;5505;51.450;9.254;2022-12-19T12:41:36;1.80;99.90
10905;DHT22;5505;51.450;9.254;2022-12-19T12:44:47;1.80;99.90
10905;DHT22;5505;51.450;9.254;2022-12-19T12:47:35;1.20;99.90
10905;DHT22;5505;51.450;9.254;2022-12-19T12:50:24;1.80;99.90
10905;DHT22;5505;51.450;9.254;2022-12-19T12:53:14;1.80;99.90
10905;DHT22;5505;51.450;9.254;2022-12-19T12:56:05;1.90;99.90
10905;DHT22;5505;51.450;9.254;2022-12-19T12:59:18;1.90;99.90
10905;DHT22;5505;51.450;9.254;2022-12-19T13:02:12;1.80;99.90
10905;DHT22;5505;51.450;9.254;2022-12-19T13:05:21;1.90;99.90
10905;DHT22;5505;51.450;9.254;2022-12-19T13:08:36;1.90;99.90
10905;DHT22;5505;51.450;9.254;2022-12-19T13:11:38;1.90;99.90
10905;DHT22;5505;51.450;9.254;2022-12-19T13:15:29;1.90;99.90
10905;DHT22;5505;51.450;9.254;2022-12-19T13:18:35;1.80;99.90
10905;DHT22;5505;51.450;9.254;2022-12-19T13:21:23;1.80;99.90
10905;DHT22;5505;51.450;9.254;2022-12-19T13:24:18;1.80;99.90
10905;DHT22;5505;51.450;9.254;2022-12-19T13:27:30;1.90;99.90
10905;DHT22;5505;51.450;9.254;2022-12-19T13:30:19;1.90;99.90
10905;DHT22;5505;51.450;9.254;2022-12-19T13:33:08;1.90;99.90
10905;DHT22;5505;51.450;9.254;2022-12-19T13:35:55;1.90;99.90
10905;DHT22;5505;51.450;9.254;2022-12-19T13:38:44;1.90;99.90
10905;DHT22;5505;51.450;9.254;2022-12-19T13:41:40;1.90;99.90
10905;DHT22;5505;51.450;9.254;2022-12-19T13:44:46;1.90;99.90
10905;DHT22;5505;51.450;9.254;2022-12-19T13:47:38;1.90;99.90
10905;DHT22;5505;51.450;9.254;2022-12-19T13:50:29;1.90;99.90
10905;DHT22;5505;51.450;9.254;2022-12-19T13:53:18;2.00;99.90
10905;DHT22;5505;51.450;9.254;2022-12-19T13:56:11;2.00;99.90
10905;DHT22;5505;51.450;9.254;2022-12-19T13:59:00;2.00;99.90
10905;DHT22;5505;51.450;9.254;2022-12-19T14:01:49;2.00;99.90
10905;DHT22;5505;51.450;9.254;2022-12-19T14:04:39;2.00;99.90
10905;DHT22;5505;51.450;9.254;2022-12-19T14:07:34;2.10;99.90
10905;DHT22;5505;51.450;9.254;2022-12-19T14:10:24;2.10;99.90
10905;DHT22;5505;51.450;9.254;2022-12-19T14:13:16;2.20;99.90
10905;DHT22;5505;51.450;9.254;2022-12-19T14:16:17;2.20;99.90
10905;DHT22;5505;51.450;9.254;2022-12-19T14:19:16;2.20;99.90
10905;DHT22;5505;51.450;9.254;2022-12-19T14:22:11;2.20;99.90
10905;DHT22;5505;51.450;9.254;2022-12-19T14:24:59;2.20;99.90
10905;DHT22;5505;51.450;9.254;2022-12-19T14:27:49;2.20;99.90
10905;DHT22;5505;51.450;9.254;2022-12-19T14:30:37;3.30;99.90
10905;DHT22;5505;51.450;9.254;2022-12-19T14:33:33;2.20;99.90
10905;DHT22;5505;51.450;9.254;2022-12-19T14:36:22;2.20;99.90
10905;DHT22;5505;51.450;9.254;2022-12-19T14:39:15;2.30;99.90
10905;DHT22;5505;51.450;9.254;2022-12-19T14:42:05;2.40;99.90
10905;DHT22;5505;51.450;9.254;2022-12-19T14:45:30;2.40;99.90
10905;DHT22;5505;51.450;9.254;2022-12-19T14:48:31;2.40;99.90
10905;DHT22;5505;51.450;9.254;2022-12-19T14:51:23;3.30;99.90
10905;DHT22;5505;51.450;9.254;2022-12-19T14:54:20;2.40;99.90
10905;DHT22;5505;51.450;9.254;2022-12-19T14:57:15;2.50;99.90
10905;DHT22;5505;51.450;9.254;2022-12-19T15:00:20;2.50;99.90
10905;DHT22;5505;51.450;9.254;2022-12-19T15:03:07;2.50;99.90
10905;DHT22;5505;51.450;9.254;2022-12-19T15:06:03;2.60;99.90
10905;DHT22;5505;51.450;9.254;2022-12-19T15:08:51;2.60;99.90
10905;DHT22;5505;51.450;9.254;2022-12-19T15:11:45;2.60;99.90
10905;DHT22;5505;51.450;9.254;2022-12-19T15:15:01;2.60;99.90
10905;DHT22;5505;51.450;9.254;2022-12-19T15:17:51;2.70;99.90
10905;DHT22;5505;51.450;9.254;2022-12-19T15:20:39;2.70;99.90
10905;DHT22;5505;51.450;9.254;2022-12-19T15:23:27;2.70;99.90
10905;DHT22;5505;51.450;9.254;2022-12-19T15:26:16;2.70;99.90
10905;DHT22;5505;51.450;9.254;2022-12-19T15:29:09;2.80;99.90
10905;DHT22;5505;51.450;9.254;2022-12-19T15:31:56;2.70;99.90
10905;DHT22;5505;51.450;9.254;2022-12-19T15:34:43;2.70;99.90
10905;DHT22;5505;51.450;9.254;2022-12-19T15:37:30;2.70;99.90
10905;DHT22;5505;51.450;9.254;2022-12-19T15:40:17;2.60;99.90
10905;DHT22;5505;51.450;9.254;2022-12-19T15:43:05;3.70;99.90
10905;DHT22;5505;51.450;9.254;2022-12-19T15:45:56;2.60;99.90
10905;DHT22;5505;51.450;9.254;2022-12-19T15:48:46;2.70;99.90
10905;DHT22;5505;51.450;9.254;2022-12-19T15:51:34;2.70;99.90
10905;DHT22;5505;51.450;9.254;2022-12-19T15:54:20;2.60;99.90
10905;DHT22;5505;51.450;9.254;2022-12-19T15:57:17;2.60;99.90
10905;DHT22;5505;51.450;9.254;2022-12-19T16:00:09;2.60;99.90
10905;DHT22;5505;51.450;9.254;2022-12-19T16:03:02;2.60;99.90
10905;DHT22;5505;51.450;9.254;2022-12-19T16:05:49;4.20;99.90
10905;DHT22;5505;51.450;9.254;2022-12-19T16:08:36;2.70;99.90
10905;DHT22;5505;51.450;9.254;2022-12-19T16:11:23;3.40;99.90
10905;DHT22;5505;51.450;9.254;2022-12-19T16:14:11;2.70;99.90
10905;DHT22;5505;51.450;9.254;2022-12-19T16:16:58;2.70;99.90
10905;DHT22;5505;51.450;9.254;2022-12-19T16:19:47;2.60;99.90
10905;DHT22;5505;51.450;9.254;2022-12-19T16:22:34;3.40;99.90
10905;DHT22;5505;51.450;9.254;2022-12-19T16:25:26;2.70;99.90
10905;DHT22;5505;51.450;9.254;2022-12-19T16:28:27;2.70;99.90
10905;DHT22;5505;51.450;9.254;2022-12-19T16:31:18;2.70;99.90
10905;DHT22;5505;51.450;9.254;2022-12-19T16:34:12;2.70;99.90
10905;DHT22;5505;51.450;9.254;2022-12-19T16:37:01;2.70;99.90
10905;DHT22;5505;51.450;9.254;2022-12-19T16:39:48;2.70;99.90
10905;DHT22;5505;51.450;9.254;2022-12-19T16:42:34;2.70;99.90
10905;DHT22;5505;51.450;9.254;2022-12-19T16:45:23;2.60;99.90
10905;DHT22;5505;51.450;9.254;2022-12-19T16:48:17;2.70;99.90
10905;DHT22;5505;51.450;9.254;2022-12-19T16:51:15;2.70;99.90
10905;DHT22;5505;51.450;9.254;2022-12-19T16:54:03;2.70;99.90
10905;DHT22;5505;51.450;9.254;2022-12-19T16:56:51;2.70;99.90
10905;DHT22;5505;51.450;9.254;2022-12-19T16:59:39;2.80;99.90
10905;DHT22;5505;51.450;9.254;2022-12-19T17:02:41;2.80;99.90
10905;DHT22;5505;51.450;9.254;2022-12-19T17:05:30;2.80;99.90
10905;DHT22;5505;51.450;9.254;2022-12-19T17:08:17;1.90;99.90
10905;DHT22;5505;51.450;9.254;2022-12-19T17:11:12;2.80;99.90
10905;DHT22;5505;51.450;9.254;2022-12-19T17:14:02;2.80;99.90
10905;DHT22;5505;51.450;9.254;2022-12-19T17:16:50;2.80;99.90
10905;DHT22;5505;51.450;9.254;2022-12-19T17:19:39;2.80;99.90
10905;DHT22;5505;51.450;9.254;2022-12-19T17:22:29;2.40;99.90
10905;DHT22;5505;51.450;9.254;2022-12-19T17:25:19;2.80;99.90
10905;DHT22;5505;51.450;9.254;2022-12-19T17:28:07;2.90;99.90
10905;DHT22;5505;51.450;9.254;2022-12-19T17:30:56;2.90;99.90
10905;DHT22;5505;51.450;9.254;2022-12-19T17:33:44;2.90;99.90
10905;DHT22;5505;51.450;9.254;2022-12-19T17:36:31;2.80;99.90
10905;DHT22;5505;51.450;9.254;2022-12-19T17:39:20;2.90;99.90
10905;DHT22;5505;51.450;9.254;2022-12-19T17:42:14;2.90;99.90
10905;DHT22;5505;51.450;9.254;2022-12-19T17:45:03;3.00;99.90
10905;DHT22;5505;51.450;9.254;2022-12-19T17:47:51;3.10;99.90
10905;DHT22;5505;51.450;9.254;2022-12-19T17:50:39;3.10;99.90
10905;DHT22;5505;51.450;9.254;2022-12-19T17:53:25;3.10;99.90
10905;DHT22;5505;51.450;9.254;2022-12-19T17:56:13;3.10;99.90
10905;DHT22;5505;51.450;9.254;2022-12-19T17:59:00;3.10;99.90
10905;DHT22;5505;51.450;9.254;2022-12-19T18:01:48;3.10;99.90
10905;DHT22;5505;51.450;9.254;2022-12-19T18:04:35;3.10;99.90
10905;DHT22;5505;51.450;9.254;2022-12-19T18:07:21;3.80;99.90
10905;DHT22;5505;51.450;9.254;2022-12-19T18:10:13;3.10;99.90
10905;DHT22;5505;51.450;9.254;2022-12-19T18:13:00;3.10;99.90
10905;DHT22;5505;51.450;9.254;2022-12-19T18:15:47;3.00;99.90
10905;DHT22;5505;51.450;9.254;2022-12-19T18:18:35;3.10;99.90
10905;DHT22;5505;51.450;9.254;2022-12-19T18:21:22;3.20;99.90
10905;DHT22;5505;51.450;9.254;2022-12-19T18:24:09;3.20;99.90
10905;DHT22;5505;51.450;9.254;2022-12-19T18:26:56;3.20;99.90
10905;DHT22;5505;51.450;9.254;2022-12-19T18:29:43;3.20;99.90
10905;DHT22;5505;51.450;9.254;2022-12-19T18:32:30;3.10;99.90
10905;DHT22;5505;51.450;9.254;2022-12-19T18:35:21;3.10;99.90